Time;durP1;ratioP1;P1;durP2;ratioP2;P2;SDS_P1;SDS_P2;PMS_P1;PMS_P2;Temp;Humidity;BMP_temperature;BMP_pressure;BME280_temperature;BME280_humidity;BME280_pressure;Samples;Min_cycle;Max_cycle;Signal;HPM_P1;HPM_P2
2023/06/08 00:02:13;;;;;;;5.23;4.17;;;16.20;1.00;;;;;;5055840;28;20675;-77
2023/06/08 00:04:40;;;;;;;4.90;4.40;;;16.10;99.90;;;;;;5055177;28;20267;-77
2023/06/08 00:07:10;;;;;;;7.13;4.50;;;16.20;99.90;;;;;;5037540;28;20174;-78
2023/06/08 00:09:37;;;;;;;5.00;4.57;;;16.10;1.00;;;;;;5037104;28;20734;-77
2023/06/08 00:12:03;;;;;;;5.17;4.40;;;16.10;99.90;;;;;;5054554;28;20551;-78
2023/06/08 00:14:29;;;;;;;5.10;4.57;;;16.10;99.90;;;;;;5036704;28;20170;-77
2023/06/08 00:16:55;;;;;;;8.37;4.57;;;16.10;99.90;;;;;;5053795;28;20184;-78
2023/06/08 00:19:22;;;;;;;4.93;4.43;;;16.10;1.00;;;;;;5036054;28;20180;-77
2023/06/08 00:21:52;;;;;;;4.63;4.23;;;16.20;1.00;;;;;;5035434;28;20201;-78
2023/06/08 00:24:19;;;;;;;5.00;4.60;;;16.30;99.90;;;;;;5036173;28;20184;-77
2023/06/08 00:26:45;;;;;;;5.10;4.70;;;16.30;1.00;;;;;;5037820;28;20209;-80
2023/06/08 00:29:11;;;;;;;4.90;4.40;;;16.20;99.90;;;;;;5056956;28;20166;-78
2023/06/08 00:31:37;;;;;;;5.60;5.00;;;16.10;1.00;;;;;;5039314;28;20174;-78
2023/06/08 00:34:03;;;;;;;5.50;4.57;;;16.00;1.00;;;;;;5039175;28;20176;-78
2023/06/08 00:36:29;;;;;;;5.00;4.60;;;16.00;99.90;;;;;;5037839;28;20177;-79
2023/06/08 00:38:55;;;;;;;5.73;4.50;;;15.90;99.90;;;;;;5038737;28;20184;-77
2023/06/08 00:41:21;;;;;;;4.80;4.40;;;16.00;99.90;;;;;;5038088;28;20197;-78
2023/06/08 00:43:47;;;;;;;4.90;4.50;;;16.00;99.90;;;;;;5055565;28;20170;-78
2023/06/08 00:46:17;;;;;;;5.43;4.73;;;15.80;99.90;;;;;;5054676;28;20244;-78
2023/06/08 00:48:43;;;;;;;5.30;4.80;;;15.60;1.00;;;;;;5037556;28;20174;-78
2023/06/08 00:51:10;;;;;;;7.00;5.20;;;15.60;99.90;;;;;;5037122;28;20232;-78
2023/06/08 00:53:37;;;;;;;5.53;5.03;;;15.60;1.00;;;;;;5036945;28;20172;-76
2023/06/08 00:56:03;;;;;;;5.47;4.97;;;15.60;99.90;;;;;;5053986;28;20720;-78
2023/06/08 00:58:29;;;;;;;4.80;4.40;;;15.60;1.00;;;;;;5053271;28;20177;-78
2023/06/08 01:01:03;;;;;;;4.93;4.50;;;15.60;99.90;;;;;;5035267;28;20205;-78
2023/06/08 01:03:35;;;;;;;4.80;4.40;;;15.50;99.90;;;;;;5034936;28;20173;-77
2023/06/08 01:06:02;;;;;;;6.00;4.60;;;15.50;99.90;;;;;;5035018;28;20190;-78
2023/06/08 01:08:57;;;;;;;4.50;4.10;;;15.40;1.00;;;;;;5052412;28;20176;-78
2023/06/08 01:11:32;;;;;;;4.67;4.17;;;15.30;1.00;;;;;;5040648;28;20284;-77
2023/06/08 01:14:19;;;;;;;4.87;4.37;;;15.30;1.00;;;;;;5058223;28;20177;-77
2023/06/08 01:16:50;;;;;;;4.70;4.30;;;15.10;99.90;;;;;;5040848;28;20166;-79
2023/06/08 01:19:33;;;;;;;5.17;4.70;;;15.10;1.00;;;;;;5040611;28;20197;-77
2023/06/08 01:22:10;;;;;;;4.70;4.30;;;15.10;1.00;;;;;;5057668;28;20181;-80
2023/06/08 01:24:38;;;;;;;5.53;4.70;;;15.10;1.00;;;;;;5040706;28;20169;-79
2023/06/08 01:27:07;;;;;;;4.93;4.47;;;15.10;1.00;;;;;;5058176;28;20209;-77
2023/06/08 01:29:33;;;;;;;4.87;4.47;;;15.10;99.90;;;;;;5039976;28;20190;-78
2023/06/08 01:31:59;;;;;;;5.23;4.73;;;15.10;1.00;;;;;;5040711;28;20176;-77
2023/06/08 01:34:26;;;;;;;6.40;4.60;;;15.20;1.00;;;;;;5057682;28;20177;-76
2023/06/08 01:37:16;;;;;;;5.10;4.60;;;15.10;1.00;;;;;;5040434;28;20531;-79
2023/06/08 01:39:48;;;;;;;5.10;4.60;;;15.30;1.00;;;;;;5039715;28;20237;-78
2023/06/08 01:42:18;;;;;;;5.50;5.00;;;15.40;99.90;;;;;;5040696;28;20227;-77
2023/06/08 01:44:50;;;;;;;5.27;4.77;;;15.50;99.90;;;;;;5040311;28;20702;-78
2023/06/08 01:47:16;;;;;;;5.57;5.07;;;15.40;99.90;;;;;;5057496;28;20170;-77
2023/06/08 01:49:44;;;;;;;7.30;5.20;;;15.30;99.90;;;;;;5040305;28;20206;-79
2023/06/08 01:52:10;;;;;;;5.60;4.70;;;15.30;1.00;;;;;;5040185;28;20174;-78
2023/06/08 01:54:35;;;;;;;4.73;4.33;;;15.20;1.00;;;;;;5057090;28;20177;-78
2023/06/08 01:57:03;;;;;;;4.73;4.23;;;15.10;1.00;;;;;;5057486;28;20177;-78
2023/06/08 01:59:29;;;;;;;4.50;4.10;;;15.00;1.00;;;;;;5039747;28;20170;-78
2023/06/08 02:01:54;;;;;;;4.70;4.13;;;14.80;1.00;;;;;;5039659;28;20174;-77
2023/06/08 02:04:20;;;;;;;5.27;4.73;;;14.60;1.00;;;;;;5039618;28;20170;-77
2023/06/08 02:06:45;;;;;;;5.00;4.43;;;14.50;99.90;;;;;;5057645;28;20205;-78
2023/06/08 02:09:11;;;;;;;4.93;4.53;;;14.50;1.00;;;;;;5039293;28;20173;-78
2023/06/08 02:11:36;;;;;;;5.50;5.00;;;14.60;1.00;;;;;;5057437;28;20217;-77
2023/06/08 02:14:03;;;;;;;6.00;5.30;;;14.70;1.00;;;;;;5039451;28;20185;-77
2023/06/08 02:16:29;;;;;;;6.50;5.20;;;14.80;1.00;;;;;;5039654;28;20170;-78
2023/06/08 02:18:55;;;;;;;5.63;5.00;;;14.80;1.00;;;;;;5039651;28;20200;-77
2023/06/08 02:21:20;;;;;;;7.30;5.77;;;14.80;99.90;;;;;;5056712;28;20221;-77
2023/06/08 02:23:46;;;;;;;6.00;5.40;;;15.00;1.00;;;;;;5039963;28;20177;-78
2023/06/08 02:26:11;;;;;;;5.57;5.00;;;15.10;1.00;;;;;;5039626;28;20205;-79
2023/06/08 02:28:39;;;;;;;6.43;5.67;;;15.20;1.00;;;;;;5039660;28;20177;-77
2023/06/08 02:31:05;;;;;;;5.57;5.07;;;15.00;99.90;;;;;;5039590;28;20279;-78
2023/06/08 02:33:30;;;;;;;5.50;5.00;;;15.00;1.00;;;;;;5039225;28;20174;-78
2023/06/08 02:35:56;;;;;;;5.70;5.13;;;15.10;1.00;;;;;;5056576;28;20181;-79
2023/06/08 02:38:21;;;;;;;6.37;5.77;;;15.10;1.00;;;;;;5039955;28;20170;-78
2023/06/08 02:40:47;;;;;;;6.10;5.60;;;15.20;1.00;;;;;;5038509;28;20229;-77
2023/06/08 02:43:12;;;;;;;6.30;5.80;;;15.20;1.00;;;;;;5056093;28;20261;-78
2023/06/08 02:45:39;;;;;;;6.10;5.50;;;15.10;99.90;;;;;;5038501;28;20201;-77
2023/06/08 02:48:05;;;;;;;6.67;5.40;;;15.10;1.00;;;;;;5038852;28;20173;-80
2023/06/08 02:50:31;;;;;;;5.60;5.10;;;14.90;1.00;;;;;;5055542;28;20236;-79
2023/06/08 02:52:56;;;;;;;5.60;5.07;;;14.90;1.00;;;;;;5038697;28;20583;-77
2023/06/08 02:55:22;;;;;;;5.97;5.10;;;14.90;99.90;;;;;;5055491;28;20174;-78
2023/06/08 02:57:51;;;;;;;5.60;5.10;;;14.80;99.90;;;;;;5055730;28;20208;-77
2023/06/08 03:00:18;;;;;;;5.53;4.90;;;14.80;1.00;;;;;;5058146;28;20189;-77
2023/06/08 03:02:44;;;;;;;7.07;5.10;;;14.70;1.00;;;;;;5041735;28;20239;-77
2023/06/08 03:05:10;;;;;;;5.97;5.37;;;14.70;1.00;;;;;;5058515;28;20205;-78
2023/06/08 03:07:40;;;;;;;5.60;5.10;;;14.70;1.00;;;;;;5041139;28;20177;-78
2023/06/08 03:10:06;;;;;;;5.80;5.20;;;14.60;99.90;;;;;;5057838;28;20186;-78
2023/06/08 03:12:32;;;;;;;5.50;5.00;;;14.60;99.90;;;;;;5058322;28;20173;-77
2023/06/08 03:14:58;;;;;;;5.40;4.93;;;14.60;1.00;;;;;;5040804;28;20261;-78
2023/06/08 03:17:24;;;;;;;5.53;5.03;;;14.60;1.00;;;;;;5040886;28;20173;-80
2023/06/08 03:19:50;;;;;;;5.40;4.90;;;14.70;99.90;;;;;;5040354;28;20355;-78
2023/06/08 03:22:19;;;;;;;5.53;5.03;;;14.50;99.90;;;;;;5039883;28;20176;-77
2023/06/08 03:24:48;;;;;;;6.33;5.30;;;14.50;1.00;;;;;;5039705;28;20194;-77
2023/06/08 03:27:14;;;;;;;6.57;5.43;;;14.50;15.60;;;;;;5039351;28;20161;-79
2023/06/08 03:29:40;;;;;;;6.50;5.90;;;14.50;1.00;;;;;;5039310;28;20196;-77
2023/06/08 03:32:06;;;;;;;7.60;5.30;;;14.50;13.10;;;;;;5056218;28;20174;-77
2023/06/08 03:34:31;;;;;;;5.93;5.30;;;14.50;1.00;;;;;;5038568;28;20174;-77
2023/06/08 03:36:57;;;;;;;6.63;5.73;;;14.60;18.70;;;;;;5038032;28;20170;-78
2023/06/08 03:39:23;;;;;;;5.90;5.30;;;14.60;1.00;;;;;;5055188;28;20174;-79
2023/06/08 03:41:48;;;;;;;6.00;5.40;;;14.60;1.00;;;;;;5037137;28;20180;-77
2023/06/08 03:44:14;;;;;;;6.73;6.00;;;14.60;1.00;;;;;;5055125;28;20177;-77
2023/06/08 03:46:39;;;;;;;6.33;5.70;;;14.60;1.00;;;;;;5036674;28;20205;-77
2023/06/08 03:49:05;;;;;;;6.50;5.90;;;14.60;1.00;;;;;;5036617;28;20177;-78
2023/06/08 03:51:31;;;;;;;6.37;5.37;;;14.60;1.00;;;;;;5035975;28;20212;-77
2023/06/08 03:53:56;;;;;;;6.03;5.23;;;14.60;50.70;;;;;;5054223;28;20193;-78
2023/06/08 03:56:22;;;;;;;6.50;5.97;;;14.70;1.00;;;;;;5057652;28;20182;-77
2023/06/08 03:58:48;;;;;;;6.83;6.17;;;14.80;42.40;;;;;;5058768;28;20245;-78
2023/06/08 04:01:14;;;;;;;6.80;6.20;;;14.90;1.00;;;;;;5041197;28;20599;-78
2023/06/08 04:03:41;;;;;;;7.33;6.53;;;14.80;99.90;;;;;;5041260;28;20652;-78
2023/06/08 04:06:08;;;;;;;5.93;5.33;;;14.80;1.00;;;;;;5058796;28;20193;-77
2023/06/08 04:08:35;;;;;;;5.77;5.27;;;14.80;1.00;;;;;;5040961;28;20180;-78
2023/06/08 04:11:01;;;;;;;6.17;5.57;;;14.80;99.90;;;;;;5040104;28;20196;-77
2023/06/08 04:13:27;;;;;;;6.77;6.10;;;14.60;1.00;;;;;;5059414;28;20169;-77
2023/06/08 04:15:52;;;;;;;7.03;5.90;;;14.50;59.80;;;;;;5058065;28;20242;-78
2023/06/08 04:18:18;;;;;;;6.37;5.70;;;14.60;99.90;;;;;;5041274;28;20177;-78
2023/06/08 04:20:45;;;;;;;6.40;5.80;;;14.50;99.90;;;;;;5058462;28;20213;-77
2023/06/08 04:23:11;;;;;;;8.50;6.83;;;14.50;1.00;;;;;;5041629;28;20264;-79
2023/06/08 04:25:37;;;;;;;7.97;7.20;;;14.30;1.00;;;;;;5040899;28;20201;-77
2023/06/08 04:28:03;;;;;;;7.57;6.87;;;14.40;1.00;;;;;;5040095;28;20223;-78
2023/06/08 04:30:29;;;;;;;8.90;6.70;;;14.50;1.00;;;;;;5040059;28;20202;-78
2023/06/08 04:32:55;;;;;;;8.27;7.30;;;14.60;1.00;;;;;;5040982;28;20208;-77
2023/06/08 04:35:21;;;;;;;7.77;6.93;;;14.70;1.00;;;;;;5040413;28;20173;-77
2023/06/08 04:37:47;;;;;;;8.40;7.57;;;14.70;1.00;;;;;;5059071;28;20174;-77
2023/06/08 04:40:13;;;;;;;7.70;6.93;;;14.80;1.00;;;;;;5040398;28;20197;-77
2023/06/08 04:42:40;;;;;;;9.80;7.47;;;14.90;1.00;;;;;;5059000;28;20182;-77
2023/06/08 04:45:08;;;;;;;7.80;7.00;;;14.90;1.00;;;;;;5058323;28;20197;-77
2023/06/08 04:47:39;;;;;;;7.80;7.00;;;15.00;1.00;;;;;;5058305;28;20233;-78
2023/06/08 04:50:08;;;;;;;8.10;7.30;;;14.90;1.00;;;;;;5040425;28;20232;-77
2023/06/08 04:52:40;;;;;;;7.93;7.20;;;15.00;1.00;;;;;;5058544;28;20170;-78
2023/06/08 04:55:13;;;;;;;8.13;7.33;;;15.10;1.00;;;;;;5043036;28;20173;-80
2023/06/08 04:57:42;;;;;;;8.00;7.30;;;15.20;1.00;;;;;;5063215;28;20182;-80
2023/06/08 05:00:12;;;;;;;8.30;7.50;;;15.30;1.00;;;;;;5063344;28;20190;-82
2023/06/08 05:02:38;;;;;;;8.53;7.63;;;15.30;1.00;;;;;;5044324;28;20254;-82
2023/06/08 05:05:05;;;;;;;8.10;7.30;;;15.30;1.00;;;;;;5044689;28;20243;-80
2023/06/08 05:07:31;;;;;;;9.37;7.50;;;15.40;1.00;;;;;;5045644;28;20204;-80
2023/06/08 05:10:00;;;;;;;8.00;7.20;;;15.40;1.00;;;;;;5047837;28;20190;-82
2023/06/08 05:12:27;;;;;;;8.30;7.50;;;15.50;1.00;;;;;;5047760;28;20170;-81
2023/06/08 05:14:53;;;;;;;8.33;7.53;;;15.50;1.00;;;;;;5063213;28;20169;-81
2023/06/08 05:17:19;;;;;;;8.60;7.33;;;15.60;1.00;;;;;;5043893;28;20200;-81
2023/06/08 05:19:45;;;;;;;8.20;7.40;;;15.70;1.00;;;;;;5063926;28;20201;-83
2023/06/08 05:22:10;;;;;;;8.03;7.23;;;15.80;1.00;;;;;;5064580;28;20174;-80
2023/06/08 05:24:36;;;;;;;7.63;6.93;;;15.90;1.00;;;;;;5044007;28;20174;-79
2023/06/08 05:27:01;;;;;;;7.60;6.90;;;16.00;1.00;;;;;;5056633;28;20246;-85
2023/06/08 05:29:27;;;;;;;8.37;7.27;;;16.20;1.00;;;;;;5045609;28;20177;-84
2023/06/08 05:31:52;;;;;;;8.10;7.40;;;16.20;1.00;;;;;;5065170;28;20243;-80
2023/06/08 05:34:18;;;;;;;8.90;8.00;;;16.30;1.00;;;;;;5045910;28;20264;-80
2023/06/08 05:36:44;;;;;;;9.63;7.53;;;16.40;1.00;;;;;;5044150;28;20184;-80
2023/06/08 05:39:09;;;;;;;8.90;7.33;;;16.50;1.00;;;;;;5045907;28;20181;-82
2023/06/08 05:41:35;;;;;;;8.10;7.40;;;16.50;1.00;;;;;;5043168;28;20213;-82
2023/06/08 05:44:00;;;;;;;8.70;7.80;;;16.60;1.00;;;;;;5062926;28;20187;-80
2023/06/08 05:46:26;;;;;;;8.27;7.47;;;16.60;1.00;;;;;;5062508;28;20303;-81
2023/06/08 05:48:51;;;;;;;8.23;7.53;;;16.70;1.00;;;;;;5044729;28;20169;-80
2023/06/08 05:51:17;;;;;;;8.77;7.80;;;16.80;1.00;;;;;;5042712;22;20253;-83
2023/06/08 05:53:43;;;;;;;8.60;7.80;;;16.90;1.00;;;;;;5016036;28;20166;-83
2023/06/08 05:56:09;;;;;;;7.80;7.03;;;17.00;1.00;;;;;;5033219;28;20182;-82
2023/06/08 05:58:35;;;;;;;8.70;7.27;;;17.10;99.90;;;;;;5031706;28;20171;-81
2023/06/08 06:01:04;;;;;;;7.80;7.10;;;17.10;1.00;;;;;;5018307;28;20198;-81
2023/06/08 06:03:30;;;;;;;8.03;7.17;;;17.20;1.00;;;;;;5008888;28;20186;-81
2023/06/08 06:05:57;;;;;;;8.07;7.27;;;17.30;99.90;;;;;;5015455;28;20214;-81
2023/06/08 06:08:23;;;;;;;7.70;7.10;;;17.40;99.90;;;;;;4998835;28;20167;-81
2023/06/08 06:10:49;;;;;;;8.20;7.47;;;17.50;1.00;;;;;;4998056;28;20203;-81
2023/06/08 06:13:15;;;;;;;7.83;7.13;;;17.60;64.00;;;;;;5015381;28;20270;-81
2023/06/08 06:15:40;;;;;;;8.13;7.10;;;17.70;1.00;;;;;;5015453;28;20253;-81
2023/06/08 06:18:06;;;;;;;7.90;6.97;;;17.90;99.90;;;;;;4998225;28;20183;-81
2023/06/08 06:20:31;;;;;;;7.70;7.00;;;18.00;1.00;;;;;;4997660;28;20685;-80
2023/06/08 06:22:57;;;;;;;7.03;6.43;;;18.10;1.00;;;;;;4997039;28;20211;-79
2023/06/08 06:25:22;;;;;;;7.10;6.50;;;18.20;1.00;;;;;;4997069;28;20290;-79
2023/06/08 06:27:48;;;;;;;6.70;6.10;;;18.40;99.90;;;;;;5001129;28;20633;-80
2023/06/08 06:30:15;;;;;;;6.57;6.07;;;18.60;1.00;;;;;;5000688;28;20232;-77
2023/06/08 06:32:40;;;;;;;6.80;5.40;;;18.70;1.00;;;;;;4999570;28;20216;-80
2023/06/08 06:35:06;;;;;;;6.53;5.93;;;18.90;1.00;;;;;;4999548;28;20221;-78
2023/06/08 06:37:35;;;;;;;6.27;5.67;;;19.10;1.00;;;;;;5017452;28;20202;-79
2023/06/08 06:40:04;;;;;;;7.10;5.70;;;19.20;1.00;;;;;;5016095;28;20733;-81
2023/06/08 06:42:30;;;;;;;6.33;5.73;;;19.40;1.00;;;;;;5017582;28;20187;-79
2023/06/08 06:44:56;;;;;;;6.53;5.93;;;19.50;99.90;;;;;;4998961;28;20260;-79
2023/06/08 06:47:22;;;;;;;7.53;5.93;;;19.60;99.90;;;;;;4999036;28;20175;-77
2023/06/08 06:49:47;;;;;;;6.33;5.70;;;19.60;1.00;;;;;;4997328;28;20175;-77
2023/06/08 06:52:13;;;;;;;6.13;5.53;;;19.70;99.90;;;;;;4997630;28;20187;-77
2023/06/08 06:54:38;;;;;;;5.57;5.07;;;19.80;1.00;;;;;;4991937;28;20183;-78
2023/06/08 06:57:04;;;;;;;6.80;5.80;;;19.80;1.00;;;;;;4996132;28;20274;-77
2023/06/08 06:59:30;;;;;;;5.57;5.00;;;19.90;99.90;;;;;;4995623;28;20179;-77
2023/06/08 07:01:56;;;;;;;5.53;5.03;;;20.00;1.00;;;;;;4995553;28;20666;-76
2023/06/08 07:04:22;;;;;;;5.97;5.35;;;20.20;1.00;;;;;;4978310;28;20263;-77
2023/06/08 07:06:49;;;;;;;5.80;5.30;;;20.30;97.90;;;;;;4995303;28;20225;-77
2023/06/08 07:09:16;;;;;;;5.38;4.97;;;20.40;1.00;;;;;;4995460;28;20246;-77
2023/06/08 07:11:42;;;;;;;5.65;5.13;;;20.60;1.00;;;;;;4986622;28;20198;-77
2023/06/08 07:14:07;;;;;;;5.53;4.90;;;20.70;99.90;;;;;;5015146;28;20167;-77
2023/06/08 07:16:33;;;;;;;5.43;4.93;;;20.80;1.00;;;;;;5015065;28;20178;-77
2023/06/08 07:18:58;;;;;;;5.50;4.80;;;20.90;1.00;;;;;;4996308;28;20277;-77
2023/06/08 07:21:25;;;;;;;9.23;4.75;;;20.90;1.00;;;;;;4997168;28;20199;-77
2023/06/08 07:23:51;;;;;;;5.60;5.10;;;21.00;1.00;;;;;;5015834;28;20182;-78
2023/06/08 07:26:17;;;;;;;5.50;5.00;;;21.10;1.00;;;;;;5014715;28;20202;-77
2023/06/08 07:28:42;;;;;;;5.57;5.00;;;21.20;1.00;;;;;;5016107;28;20179;-78
2023/06/08 07:31:08;;;;;;;5.82;4.85;;;21.30;1.00;;;;;;4998390;28;20198;-75
2023/06/08 07:33:33;;;;;;;5.75;4.80;;;21.30;1.00;;;;;;4997862;28;20179;-78
2023/06/08 07:35:59;;;;;;;5.28;4.82;;;21.40;99.90;;;;;;5015884;28;20546;-79
2023/06/08 07:38:25;;;;;;;5.32;4.82;;;21.50;99.90;;;;;;5015935;28;20258;-79
2023/06/08 07:40:50;;;;;;;4.93;4.43;;;21.60;99.90;;;;;;4997874;28;20676;-78
2023/06/08 07:43:16;;;;;;;4.90;4.50;;;21.60;1.00;;;;;;4997877;28;20171;-78
2023/06/08 07:45:42;;;;;;;6.32;5.03;;;21.70;1.00;;;;;;5015095;28;20199;-78
2023/06/08 07:48:07;;;;;;;5.57;5.05;;;21.80;1.00;;;;;;4997646;28;20171;-79
2023/06/08 07:50:33;;;;;;;5.28;4.78;;;21.80;1.00;;;;;;4997357;28;20297;-79
2023/06/08 07:52:58;;;;;;;5.57;4.80;;;21.90;1.00;;;;;;4997882;28;20171;-79
2023/06/08 07:55:24;;;;;;;5.03;4.63;;;22.00;1.00;;;;;;4998029;28;20181;-78
2023/06/08 07:57:50;;;;;;;5.68;4.95;;;22.00;90.60;;;;;;4997698;28;20210;-78
2023/06/08 08:00:16;;;;;;;5.43;4.93;;;22.10;1.00;;;;;;5014882;28;20673;-79
2023/06/08 08:02:43;;;;;;;5.20;4.80;;;22.10;99.90;;;;;;5014875;28;20220;-78
2023/06/08 08:05:09;;;;;;;5.40;4.90;;;22.20;1.00;;;;;;4997212;28;20205;-79
2023/06/08 08:07:36;;;;;;;5.07;4.43;;;22.30;1.00;;;;;;5015257;28;20182;-79
2023/06/08 08:10:03;;;;;;;5.28;4.85;;;22.50;99.90;;;;;;5014866;28;20179;-78
2023/06/08 08:12:29;;;;;;;5.32;4.93;;;22.60;99.90;;;;;;5015365;28;20171;-79
2023/06/08 08:14:54;;;;;;;5.30;4.80;;;22.60;99.90;;;;;;4997402;28;20638;-79
2023/06/08 08:17:20;;;;;;;5.35;4.63;;;22.60;99.90;;;;;;5014756;28;20178;-79
2023/06/08 08:19:45;;;;;;;5.22;4.75;;;22.60;1.00;;;;;;4997260;28;20171;-78
2023/06/08 08:22:11;;;;;;;5.20;4.70;;;22.70;79.30;;;;;;4997331;28;20171;-78
2023/06/08 08:24:37;;;;;;;4.70;4.30;;;22.80;99.90;;;;;;4997476;28;20266;-79
2023/06/08 08:27:02;;;;;;;5.38;4.80;;;22.90;32.00;;;;;;5014873;28;20689;-79
2023/06/08 08:29:28;;;;;;;5.47;5.00;;;23.00;1.00;;;;;;4996928;28;20203;-79
2023/06/08 08:31:53;;;;;;;4.90;4.50;;;23.10;1.00;;;;;;4997009;28;20222;-79
2023/06/08 08:34:19;;;;;;;5.68;4.57;;;23.20;1.00;;;;;;4996831;28;20171;-78
2023/06/08 08:36:45;;;;;;;5.05;4.65;;;23.20;1.00;;;;;;4997366;28;20175;-79
2023/06/08 08:39:11;;;;;;;4.90;4.50;;;23.40;1.00;;;;;;4997184;28;20182;-79
2023/06/08 08:41:40;;;;;;;5.07;4.55;;;23.50;99.90;;;;;;5014736;28;20207;-78
2023/06/08 08:44:08;;;;;;;4.80;4.40;;;23.80;1.00;;;;;;5014845;28;20229;-79
2023/06/08 08:46:37;;;;;;;5.18;4.60;;;24.10;1.00;;;;;;5014609;28;20195;-79
2023/06/08 08:49:08;;;;;;;5.90;4.45;;;24.10;1.00;;;;;;4997213;28;20195;-79
2023/06/08 08:51:38;;;;;;;5.13;4.55;;;24.20;1.00;;;;;;4997012;28;20297;-79
2023/06/08 08:54:05;;;;;;;6.68;4.88;;;24.40;99.90;;;;;;5014888;28;20167;-79
2023/06/08 08:56:35;;;;;;;4.70;4.30;;;24.70;1.00;;;;;;5013790;28;20209;-79
2023/06/08 08:59:02;;;;;;;4.88;4.47;;;24.90;99.90;;;;;;4996534;28;20209;-79
2023/06/08 09:01:28;;;;;;;4.90;4.40;;;24.60;58.20;;;;;;5014028;28;20199;-79
2023/06/08 09:03:54;;;;;;;6.32;4.55;;;24.40;99.90;;;;;;5014468;28;20185;-79
2023/06/08 09:06:19;;;;;;;4.75;4.35;;;24.10;1.00;;;;;;4996716;28;20589;-79
2023/06/08 09:08:47;;;;;;;5.25;4.80;;;24.00;99.90;;;;;;4996889;28;20174;-78
2023/06/08 09:11:12;;;;;;;5.40;4.47;;;23.80;99.90;;;;;;5013900;28;20187;-79
2023/06/08 09:13:38;;;;;;;4.68;4.28;;;23.80;1.00;;;;;;5013938;28;20665;-78
2023/06/08 09:16:17;;;;;;;4.60;4.20;;;24.00;99.90;;;;;;4996333;28;20182;-78
2023/06/08 09:19:05;;;;;;;5.50;4.57;;;23.90;99.90;;;;;;4996410;28;20265;-79
2023/06/08 09:21:32;;;;;;;6.43;4.30;;;24.10;99.90;;;;;;5013760;28;20267;-78
2023/06/08 09:24:14;;;;;;;4.35;4.05;;;24.50;99.90;;;;;;4996255;28;20229;-79
2023/06/08 09:27:06;;;;;;;4.55;4.15;;;24.70;15.10;;;;;;5013868;28;20198;-79
2023/06/08 09:29:42;;;;;;;5.07;4.57;;;25.10;99.90;;;;;;5011670;28;20190;-78
2023/06/08 09:32:16;;;;;;;4.70;4.30;;;25.50;99.90;;;;;;4996543;28;20254;-79
2023/06/08 09:35:21;;;;;;;4.70;4.30;;;25.70;1.00;;;;;;4995811;28;20245;-78
2023/06/08 09:37:49;;;;;;;4.80;4.40;;;25.70;1.00;;;;;;4976579;28;20183;-78
2023/06/08 09:40:19;;;;;;;4.57;4.25;;;25.40;63.80;;;;;;4996184;28;20198;-79
2023/06/08 09:42:53;;;;;;;4.32;4.03;;;25.50;1.00;;;;;;4996056;28;20221;-78
2023/06/08 09:45:20;;;;;;;4.13;3.83;;;25.70;1.00;;;;;;5013307;28;20673;-78
2023/06/08 09:47:47;;;;;;;4.40;4.00;;;26.00;1.00;;;;;;5013623;28;20167;-79
2023/06/08 09:50:13;;;;;;;4.75;4.35;;;25.80;1.00;;;;;;5013850;28;20260;-79
2023/06/08 09:52:39;;;;;;;5.07;4.22;;;25.60;1.00;;;;;;5014020;28;20156;-79
2023/06/08 09:55:05;;;;;;;4.38;4.03;;;25.60;1.00;;;;;;5014098;28;20183;-79
2023/06/08 09:57:40;;;;;;;4.20;3.80;;;25.60;1.00;;;;;;4996623;28;20203;-79
2023/06/08 10:00:14;;;;;;;;;;;;;;;;;;;;;
2023/06/08 10:02:58;;;;;;;4.20;3.88;;;25.60;1.00;;;;;;5013952;28;20217;-79
2023/06/08 10:05:27;;;;;;;4.35;4.03;;;25.90;1.00;;;;;;5013360;28;20195;-79
2023/06/08 10:07:57;;;;;;;4.20;3.85;;;25.80;1.00;;;;;;4997248;28;20265;-78
2023/06/08 10:10:34;;;;;;;4.22;3.83;;;25.50;1.00;;;;;;5017352;28;20246;-79
2023/06/08 10:13:00;;;;;;;5.00;4.03;;;25.10;1.00;;;;;;5000593;28;20185;-79
2023/06/08 10:15:27;;;;;;;4.40;4.10;;;24.90;7.40;;;;;;5002182;28;20179;-79
2023/06/08 10:17:55;;;;;;;4.50;4.10;;;24.70;1.00;;;;;;5000272;28;20398;-79
2023/06/08 10:20:20;;;;;;;4.00;3.70;;;24.50;82.30;;;;;;5017482;28;20253;-79
2023/06/08 10:22:47;;;;;;;4.13;3.70;;;24.90;99.90;;;;;;5017467;28;20171;-79
2023/06/08 10:25:16;;;;;;;4.35;3.95;;;25.60;1.00;;;;;;5018983;28;20210;-79
2023/06/08 10:27:49;;;;;;;4.30;3.90;;;25.70;1.00;;;;;;5017654;28;20175;-80
2023/06/08 10:30:27;;;;;;;4.40;4.00;;;25.30;1.00;;;;;;4999588;28;20218;-78
2023/06/08 10:32:55;;;;;;;4.00;3.70;;;25.10;5.40;;;;;;5017543;28;20673;-79
2023/06/08 10:35:21;;;;;;;4.13;3.83;;;24.90;1.00;;;;;;4999405;28;20187;-79
2023/06/08 10:37:46;;;;;;;5.05;3.70;;;24.70;1.00;;;;;;4999652;28;20181;-78
2023/06/08 10:40:12;;;;;;;4.07;3.67;;;24.80;10.40;;;;;;4999207;28;20195;-79
2023/06/08 10:42:53;;;;;;;4.45;3.75;;;25.30;90.40;;;;;;4999590;28;20665;-79
2023/06/08 10:45:31;;;;;;;3.97;3.67;;;25.40;1.00;;;;;;4999474;28;20290;-79
2023/06/08 10:48:07;;;;;;;4.20;3.80;;;25.30;1.00;;;;;;4999593;28;20163;-80
2023/06/08 10:50:37;;;;;;;4.00;3.70;;;25.00;1.00;;;;;;5016693;28;20202;-78
2023/06/08 10:53:03;;;;;;;4.20;3.80;;;24.70;1.00;;;;;;5016968;28;20175;-79
2023/06/08 10:55:30;;;;;;;4.15;3.80;;;24.70;1.00;;;;;;5016773;28;20171;-79
2023/06/08 10:58:06;;;;;;;4.18;3.88;;;24.90;99.90;;;;;;5016866;28;20178;-79
2023/06/08 11:00:33;;;;;;;4.18;3.85;;;25.60;1.00;;;;;;5016167;28;20277;-78
2023/06/08 11:02:59;;;;;;;4.05;3.75;;;26.50;1.00;;;;;;5016921;28;20234;-79
2023/06/08 11:05:29;;;;;;;4.20;3.80;;;26.50;1.00;;;;;;4999091;28;20228;-79
2023/06/08 11:07:56;;;;;;;4.10;3.70;;;26.30;1.00;;;;;;4999057;28;20203;-79
2023/06/08 11:10:22;;;;;;;4.00;3.70;;;26.10;1.00;;;;;;4998973;28;20218;-79
2023/06/08 11:12:48;;;;;;;3.90;3.60;;;26.10;1.00;;;;;;4999386;28;20194;-79
2023/06/08 11:15:14;;;;;;;4.68;4.00;;;26.50;1.00;;;;;;5016713;28;20638;-79
2023/06/08 11:17:51;;;;;;;4.10;3.70;;;27.00;1.00;;;;;;4998819;28;20181;-79
2023/06/08 11:20:17;;;;;;;4.10;3.80;;;26.80;1.00;;;;;;4997663;28;20191;-79
2023/06/08 11:22:43;;;;;;;3.72;3.42;;;26.70;1.00;;;;;;4998988;28;20198;-79
2023/06/08 11:25:08;;;;;;;4.05;3.65;;;26.50;1.00;;;;;;5016390;28;20289;-79
2023/06/08 11:27:43;;;;;;;3.53;3.30;;;26.30;1.00;;;;;;4998917;28;20178;-79
2023/06/08 11:30:15;;;;;;;3.95;3.65;;;26.10;1.00;;;;;;4998473;28;20197;-78
2023/06/08 11:32:47;;;;;;;4.05;3.63;;;25.80;1.00;;;;;;5016173;28;20156;-79
2023/06/08 11:35:13;;;;;;;3.83;3.53;;;25.60;1.00;;;;;;5015424;28;20202;-79
2023/06/08 11:37:41;;;;;;;3.97;3.60;;;25.40;1.00;;;;;;5016450;28;20650;-79
2023/06/08 11:40:14;;;;;;;3.60;3.30;;;25.20;1.00;;;;;;5015844;28;20199;-79
2023/06/08 11:42:41;;;;;;;5.38;3.78;;;25.10;1.00;;;;;;5015692;28;20167;-78
2023/06/08 11:45:09;;;;;;;3.80;3.50;;;25.00;1.00;;;;;;5015849;28;20200;-79
2023/06/08 11:47:35;;;;;;;4.25;3.95;;;25.10;1.00;;;;;;4998395;28;20225;-79
2023/06/08 11:50:03;;;;;;;4.63;3.78;;;25.10;1.00;;;;;;5034685;28;20202;-80
2023/06/08 11:52:33;;;;;;;4.55;4.00;;;25.10;1.00;;;;;;5017791;28;20184;-80
2023/06/08 11:55:01;;;;;;;4.18;3.83;;;24.80;1.00;;;;;;5017961;28;20174;-80
2023/06/08 11:57:47;;;;;;;5.35;3.97;;;24.70;1.00;;;;;;5035229;28;20193;-80
2023/06/08 12:00:20;;;;;;;4.30;3.90;;;24.70;16.20;;;;;;5035236;28;20187;-80
2023/06/08 12:02:47;;;;;;;3.92;3.50;;;24.70;1.00;;;;;;5034921;28;20166;-80
2023/06/08 12:05:15;;;;;;;5.00;3.70;;;24.70;97.60;;;;;;5035010;28;20701;-80
2023/06/08 12:07:53;;;;;;;4.03;3.60;;;24.60;1.00;;;;;;5035083;28;20185;-80
2023/06/08 12:10:19;;;;;;;4.05;3.75;;;24.60;64.20;;;;;;5017114;28;20197;-80
2023/06/08 12:12:50;;;;;;;4.03;3.63;;;24.60;1.00;;;;;;5017456;28;20166;-80
2023/06/08 12:15:17;;;;;;;4.07;3.67;;;24.50;1.00;;;;;;5017058;28;20169;-80
2023/06/08 12:17:43;;;;;;;3.90;3.60;;;24.50;1.00;;;;;;5034467;28;20189;-80
2023/06/08 12:20:09;;;;;;;3.95;3.65;;;24.30;1.00;;;;;;5016631;28;20574;-80
2023/06/08 12:22:35;;;;;;;4.05;3.75;;;24.30;1.00;;;;;;5034192;28;20179;-79
2023/06/08 12:25:00;;;;;;;3.72;3.40;;;24.30;12.60;;;;;;5034460;28;20722;-79
2023/06/08 12:27:29;;;;;;;4.00;3.70;;;24.20;1.00;;;;;;5034190;28;20575;-80
2023/06/08 12:29:56;;;;;;;3.88;3.58;;;24.20;1.00;;;;;;5034520;28;20171;-80
2023/06/08 12:32:23;;;;;;;4.00;3.70;;;24.10;1.00;;;;;;5016865;28;20198;-80
2023/06/08 12:34:48;;;;;;;4.18;3.88;;;24.10;1.00;;;;;;5016457;28;20620;-81
2023/06/08 12:37:14;;;;;;;4.20;3.80;;;24.00;1.00;;;;;;5034190;28;20201;-80
2023/06/08 12:39:39;;;;;;;4.50;4.10;;;23.90;23.90;;;;;;5034263;28;20185;-79
2023/06/08 12:42:06;;;;;;;4.50;4.10;;;23.90;38.00;;;;;;5033956;28;20178;-80
2023/06/08 12:44:32;;;;;;;6.25;4.50;;;23.90;98.90;;;;;;5035398;28;20715;-82
2023/06/08 12:46:59;;;;;;;5.22;4.38;;;24.00;56.70;;;;;;5017174;28;20198;-79
2023/06/08 12:49:24;;;;;;;5.05;4.20;;;24.30;34.90;;;;;;5016354;28;20166;-79
2023/06/08 12:51:50;;;;;;;6.88;4.78;;;24.80;1.00;;;;;;5016162;28;20582;-80
2023/06/08 12:54:16;;;;;;;4.53;4.13;;;25.30;1.00;;;;;;5016308;28;20256;-79
2023/06/08 12:56:41;;;;;;;4.85;4.40;;;25.70;1.00;;;;;;5016487;28;20174;-80
2023/06/08 12:59:07;;;;;;;4.90;4.30;;;26.10;1.00;;;;;;5034364;28;20189;-80